Time;durP1;ratioP1;P1;durP2;ratioP2;P2;SDS_P1;SDS_P2;PMS_P1;PMS_P2;Temp;Humidity;BMP_temperature;BMP_pressure;BME280_temperature;BME280_humidity;BME280_pressure;Samples;Min_cycle;Max_cycle;Signal;HPM_P1;HPM_P2
2022/01/29 00:00:54;;;;;;;4.70;2.97;;;;;;;-2.76;100.00;94479.75;2098432;28;20016;-79
2022/01/29 00:01:59;;;;;;;3.65;2.95;;;;;;;-2.79;100.00;94478.50;2111670;27;20023;-80
2022/01/29 00:03:00;;;;;;;6.03;3.20;;;;;;;-2.88;100.00;94487.38;2118334;27;20034;-79
2022/01/29 00:04:01;;;;;;;5.55;3.05;;;;;;;-2.84;100.00;94483.84;2109984;28;20035;-79
2022/01/29 00:05:03;;;;;;;4.75;3.13;;;;;;;-2.77;100.00;94486.03;2097859;28;20032;-80
2022/01/29 00:06:04;;;;;;;6.38;3.25;;;;;;;-2.73;100.00;94492.22;2097753;28;20521;-80
2022/01/29 00:07:05;;;;;;;7.05;3.15;;;;;;;-2.73;100.00;94492.22;2097671;28;20024;-79
2022/01/29 00:08:06;;;;;;;9.38;3.13;;;;;;;-2.84;100.00;94486.47;2101534;28;20108;-79
2022/01/29 00:09:08;;;;;;;5.88;3.22;;;;;;;-2.87;100.00;94489.69;2093805;28;20109;-80
2022/01/29 00:10:10;;;;;;;7.82;3.40;;;;;;;-2.92;100.00;94484.56;2101867;27;20025;-79
2022/01/29 00:11:14;;;;;;;6.90;2.92;;;;;;;-2.97;100.00;94482.06;2114211;28;20695;-80
2022/01/29 00:12:15;;;;;;;6.40;3.35;;;;;;;-3.14;100.00;94480.09;2112604;28;20077;-78
2022/01/29 00:13:16;;;;;;;10.20;3.53;;;;;;;-3.09;100.00;94485.19;2109515;27;20081;-81
2022/01/29 00:14:17;;;;;;;5.00;3.40;;;;;;;-3.09;100.00;94484.44;2127140;27;20027;-82
2022/01/29 00:15:20;;;;;;;5.38;3.40;;;;;;;-3.15;100.00;94467.31;2109978;28;20472;-81
2022/01/29 00:16:21;;;;;;;7.72;3.70;;;;;;;-3.08;100.00;94476.28;2103865;28;20095;-81
2022/01/29 00:17:22;;;;;;;6.43;3.30;;;;;;;-2.97;100.00;94460.38;2097392;28;20032;-81
2022/01/29 00:18:23;;;;;;;6.57;3.25;;;;;;;-2.96;100.00;94465.31;2094529;28;20059;-81
2022/01/29 00:19:24;;;;;;;4.25;3.58;;;;;;;-2.92;100.00;94471.50;2102850;28;21890;-80
2022/01/29 00:20:24;;;;;;;5.28;3.40;;;;;;;-2.94;100.00;94465.00;2096975;28;20028;-82
2022/01/29 00:21:25;;;;;;;8.18;3.85;;;;;;;-2.98;100.00;94467.44;2088165;28;20017;-81
2022/01/29 00:22:28;;;;;;;8.98;4.32;;;;;;;-3.07;100.00;94459.53;2099943;28;20031;-81
2022/01/29 00:23:29;;;;;;;11.95;3.97;;;;;;;-3.08;100.00;94467.66;2109139;27;20031;-82
2022/01/29 00:24:30;;;;;;;6.50;4.20;;;;;;;-3.00;100.00;94469.56;2114096;28;20024;-81
2022/01/29 00:25:31;;;;;;;6.38;4.25;;;;;;;-3.10;100.00;94467.19;2101301;28;20051;-81
2022/01/29 00:26:32;;;;;;;6.88;3.97;;;;;;;-3.09;100.00;94469.50;2110100;28;20492;-81
2022/01/29 00:27:35;;;;;;;6.82;4.05;;;;;;;-3.11;100.00;94469.03;2101566;28;20019;-81
2022/01/29 00:28:36;;;;;;;10.40;3.60;;;;;;;-3.10;100.00;94465.34;2095108;28;20027;-80
2022/01/29 00:29:40;;;;;;;6.68;3.50;;;;;;;-3.22;100.00;94459.88;2097150;28;20032;-82
2022/01/29 00:30:43;;;;;;;5.50;4.00;;;;;;;-3.20;100.00;94454.38;2109511;28;20047;-81
2022/01/29 00:31:44;;;;;;;4.47;3.65;;;;;;;-3.28;100.00;94455.06;2108413;28;20337;-81
2022/01/29 00:32:45;;;;;;;7.00;4.00;;;;;;;-3.24;100.00;94448.19;2108389;28;20036;-81
2022/01/29 00:33:46;;;;;;;7.65;3.78;;;;;;;-3.28;100.00;94447.22;2114177;28;20075;-80
2022/01/29 00:34:47;;;;;;;5.97;3.75;;;;;;;-3.19;100.00;94451.44;2114406;28;20368;-80
2022/01/29 00:35:48;;;;;;;6.47;4.07;;;;;;;-3.20;100.00;94449.91;2103183;28;20035;-81
2022/01/29 00:36:49;;;;;;;5.72;3.53;;;;;;;-3.25;100.00;94446.59;2093349;28;20108;-81
2022/01/29 00:37:50;;;;;;;4.78;3.13;;;;;;;-3.25;100.00;94444.75;2099242;28;20058;-82
2022/01/29 00:38:50;;;;;;;4.88;3.10;;;;;;;-3.23;100.00;94444.47;2109913;28;20068;-81
2022/01/29 00:39:51;;;;;;;5.10;4.00;;;;;;;-3.30;100.00;94442.25;2111401;28;20084;-81
2022/01/29 00:40:52;;;;;;;7.75;3.35;;;;;;;-3.32;100.00;94445.19;2097237;28;20021;-82
2022/01/29 00:41:53;;;;;;;6.40;3.85;;;;;;;-3.30;100.00;94437.03;2080895;28;20609;-82
2022/01/29 00:42:54;;;;;;;5.80;3.17;;;;;;;-3.31;100.00;94444.09;2094967;28;20111;-81
2022/01/29 00:43:55;;;;;;;6.50;3.83;;;;;;;-3.38;100.00;94441.16;2090095;28;20044;-81
2022/01/29 00:44:56;;;;;;;5.53;3.05;;;;;;;-3.41;100.00;94438.34;2104638;28;20036;-82
2022/01/29 00:45:57;;;;;;;7.35;3.35;;;;;;;-3.39;100.00;94442.19;2114935;27;20023;-81
2022/01/29 00:46:58;;;;;;;7.25;3.60;;;;;;;-3.33;100.00;94435.03;2106497;28;20016;-80
2022/01/29 00:47:59;;;;;;;6.15;3.30;;;;;;;-3.26;100.00;94437.22;2106040;28;20484;-82
2022/01/29 00:49:00;;;;;;;6.22;3.45;;;;;;;-3.25;100.00;94434.31;2113193;28;20157;-81
2022/01/29 00:50:01;;;;;;;6.00;3.40;;;;;;;-3.24;100.00;94435.09;2097237;28;20036;-81
2022/01/29 00:51:02;;;;;;;8.80;3.35;;;;;;;-3.25;100.00;94430.91;2096490;28;20028;-81
2022/01/29 00:52:04;;;;;;;8.85;3.40;;;;;;;-3.37;100.00;94432.22;2089138;28;20500;-81
2022/01/29 00:53:05;;;;;;;5.65;3.25;;;;;;;-3.30;100.00;94432.56;2097621;28;20056;-81
2022/01/29 00:54:06;;;;;;;7.65;3.63;;;;;;;-3.35;100.00;94435.31;2110090;27;20023;-81
2022/01/29 00:55:09;;;;;;;4.63;3.03;;;;;;;-3.02;100.00;94429.88;2106063;28;20805;-81
2022/01/29 00:56:10;;;;;;;4.88;3.40;;;;;;;-3.15;100.00;94421.03;2096072;28;20032;-81
2022/01/29 00:57:12;;;;;;;5.80;3.28;;;;;;;-3.12;100.00;94430.88;2092622;28;20028;-81
2022/01/29 00:58:13;;;;;;;8.18;3.20;;;;;;;-3.09;100.00;94430.28;2090399;28;20025;-81
2022/01/29 00:59:14;;;;;;;4.57;3.25;;;;;;;-3.16;100.00;94426.53;2104102;28;20031;-80
2022/01/29 01:00:15;;;;;;;6.18;3.60;;;;;;;-3.08;100.00;94425.81;2099383;28;20108;-81
2022/01/29 01:01:16;;;;;;;7.60;3.20;;;;;;;-3.07;100.00;94428.16;2104621;28;20046;-80
2022/01/29 01:02:17;;;;;;;5.55;3.20;;;;;;;-3.11;100.00;94431.66;2084961;28;20115;-80
2022/01/29 01:03:25;;;;;;;6.40;3.75;;;;;;;-3.02;100.00;94427.25;2106316;28;20020;-80
2022/01/29 01:04:26;;;;;;;6.47;3.63;;;;;;;-2.96;100.00;94420.84;2107244;28;20117;-81
2022/01/29 01:05:27;;;;;;;5.05;3.30;;;;;;;-3.16;100.00;94418.69;2105091;28;20400;-81
2022/01/29 01:06:28;;;;;;;6.55;3.28;;;;;;;-3.23;100.00;94411.28;2105088;28;20047;-81
2022/01/29 01:07:29;;;;;;;8.25;3.80;;;;;;;-3.21;100.00;94409.13;2101197;28;20028;-81
2022/01/29 01:08:30;;;;;;;7.68;3.38;;;;;;;-3.25;100.00;94405.53;2093266;28;20517;-80
2022/01/29 01:09:31;;;;;;;5.55;3.25;;;;;;;-3.31;100.00;94397.06;2094093;28;20021;-80
2022/01/29 01:10:32;;;;;;;5.10;3.63;;;;;;;-3.36;100.00;94391.94;2089438;28;20116;-80
2022/01/29 01:11:33;;;;;;;6.70;3.55;;;;;;;-3.14;100.00;94391.19;2110147;28;20020;-81
2022/01/29 01:12:35;;;;;;;4.53;3.25;;;;;;;-3.16;100.00;94392.53;2114323;27;20490;-81
2022/01/29 01:13:35;;;;;;;7.03;3.47;;;;;;;-3.27;100.00;94389.41;2106258;28;20102;-81
2022/01/29 01:14:37;;;;;;;6.65;4.00;;;;;;;-3.23;100.00;94387.75;2101648;28;20474;-82
2022/01/29 01:15:38;;;;;;;7.30;3.33;;;;;;;-3.20;100.00;94381.91;2101922;28;20039;-82
2022/01/29 01:16:38;;;;;;;6.10;3.15;;;;;;;-3.30;100.00;94380.28;2098864;28;20388;-81
2022/01/29 01:17:39;;;;;;;7.90;3.72;;;;;;;-3.30;100.00;94382.91;2110098;28;20024;-81
2022/01/29 01:18:40;;;;;;;5.95;3.58;;;;;;;-3.39;100.00;94392.53;2105273;28;20039;-81
2022/01/29 01:19:41;;;;;;;5.88;3.67;;;;;;;-3.33;100.00;94393.22;2097841;28;20428;-81
2022/01/29 01:20:42;;;;;;;4.90;3.80;;;;;;;-3.28;100.00;94400.94;2089264;28;20028;-81
2022/01/29 01:21:43;;;;;;;10.07;3.90;;;;;;;-3.17;100.00;94393.63;2089629;28;20378;-81
2022/01/29 01:22:44;;;;;;;6.40;3.50;;;;;;;-3.13;100.00;94395.34;2089585;28;20033;-80
2022/01/29 01:23:46;;;;;;;5.88;3.63;;;;;;;-3.10;100.00;94386.91;2081403;28;20021;-81
2022/01/29 01:24:47;;;;;;;6.35;3.70;;;;;;;-3.15;100.00;94386.25;2081682;28;20445;-81
2022/01/29 01:25:49;;;;;;;7.35;3.75;;;;;;;-3.11;100.00;94393.22;2081167;28;20105;-81
2022/01/29 01:26:51;;;;;;;8.05;4.28;;;;;;;-3.05;100.00;94386.78;2081145;28;20026;-80
2022/01/29 01:27:52;;;;;;;5.93;3.63;;;;;;;-3.09;100.00;94379.81;2088501;28;20024;-81
2022/01/29 01:28:53;;;;;;;6.68;3.67;;;;;;;-3.06;100.00;94377.41;2097972;28;20693;-81
2022/01/29 01:29:54;;;;;;;4.40;3.80;;;;;;;-3.24;100.00;94382.81;2097736;28;20029;-81
2022/01/29 01:30:55;;;;;;;9.40;3.65;;;;;;;-3.26;100.00;94374.47;2089365;28;20025;-81
2022/01/29 01:31:56;;;;;;;7.70;3.83;;;;;;;-3.27;100.00;94371.09;2102047;28;20433;-81
2022/01/29 01:32:57;;;;;;;8.20;3.80;;;;;;;-3.28;100.00;94369.56;2106021;28;20020;-81
2022/01/29 01:33:58;;;;;;;7.38;3.95;;;;;;;-3.28;100.00;94371.41;2097676;28;20023;-81
2022/01/29 01:35:10;;;;;;;5.60;3.65;;;;;;;-3.22;100.00;94367.59;2106124;28;20031;-82
2022/01/29 01:36:13;;;;;;;7.38;3.63;;;;;;;-3.09;100.00;94377.97;2107442;28;20024;-81
2022/01/29 01:37:35;;;;;;;6.70;4.00;;;;;;;-3.10;100.00;94378.28;2104092;27;20081;-81
2022/01/29 01:38:50;;;;;;;7.05;3.85;;;;;;;-3.16;100.00;94384.69;2112585;27;20126;-81
2022/01/29 01:39:51;;;;;;;6.03;3.60;;;;;;;-3.17;100.00;94381.31;2108065;28;20024;-80
2022/01/29 01:40:57;;;;;;;8.52;3.38;;;;;;;-3.12;100.00;94389.03;2099569;28;20382;-81
2022/01/29 01:42:04;;;;;;;7.88;3.53;;;;;;;-3.15;100.00;94383.66;2114142;28;20818;-81
2022/01/29 01:43:05;;;;;;;11.00;3.70;;;;;;;-3.17;100.00;94391.75;2098494;28;20548;-81
2022/01/29 01:44:09;;;;;;;8.48;3.42;;;;;;;-3.17;100.00;94386.53;2097741;28;20024;-80
2022/01/29 01:45:10;;;;;;;5.97;3.42;;;;;;;-3.18;100.00;94387.63;2122307;27;20097;-81
2022/01/29 01:46:11;;;;;;;5.88;3.40;;;;;;;-3.15;100.00;94392.25;2102109;28;20025;-81
2022/01/29 01:47:16;;;;;;;5.10;3.38;;;;;;;-3.17;100.00;94404.06;2090257;28;20124;-80
2022/01/29 01:48:17;;;;;;;4.72;3.00;;;;;;;-3.07;100.00;94401.25;2106466;28;20050;-82
2022/01/29 01:49:19;;;;;;;5.53;3.20;;;;;;;-3.05;100.00;94397.25;2106163;27;20054;-81
2022/01/29 01:50:21;;;;;;;3.60;2.80;;;;;;;-3.09;100.00;94392.91;2120948;27;20087;-81
2022/01/29 01:51:23;;;;;;;5.10;3.30;;;;;;;-3.23;100.00;94389.59;2114166;28;20034;-80
2022/01/29 01:52:24;;;;;;;6.88;3.72;;;;;;;-3.16;100.00;94387.31;2099926;28;20026;-81
2022/01/29 01:53:25;;;;;;;6.65;3.88;;;;;;;-3.08;100.00;94378.75;2103463;28;20031;-81
2022/01/29 01:54:26;;;;;;;7.20;3.63;;;;;;;-3.08;100.00;94374.28;2100216;28;20143;-81
2022/01/29 01:55:28;;;;;;;4.57;3.33;;;;;;;-3.09;100.00;94379.81;2090250;28;20028;-82
2022/01/29 01:56:29;;;;;;;6.18;3.25;;;;;;;-3.08;100.00;94373.53;2095432;28;20416;-81
2022/01/29 01:57:30;;;;;;;9.25;3.75;;;;;;;-2.95;100.00;94379.75;2101900;28;20465;-82
2022/01/29 01:58:31;;;;;;;6.72;3.63;;;;;;;-2.87;100.00;94379.03;2109355;28;20015;-82
2022/01/29 01:59:33;;;;;;;7.63;3.70;;;;;;;-2.95;100.00;94374.53;2105881;28;20556;-81
2022/01/29 02:00:34;;;;;;;6.55;3.72;;;;;;;-3.01;100.00;94373.88;2093271;28;20016;-81
2022/01/29 02:01:35;;;;;;;7.63;3.97;;;;;;;-3.00;100.00;94377.25;2093324;28;20391;-80
2022/01/29 02:02:36;;;;;;;5.47;3.47;;;;;;;-2.95;100.00;94380.53;2101650;28;20031;-82
2022/01/29 02:03:37;;;;;;;7.30;3.83;;;;;;;-2.98;100.00;94375.13;2101514;28;20123;-82
2022/01/29 02:04:39;;;;;;;6.00;3.80;;;;;;;-2.97;100.00;94368.84;2098634;28;20031;-81
2022/01/29 02:05:40;;;;;;;6.38;3.47;;;;;;;-2.93;100.00;94360.09;2105993;28;20028;-81
2022/01/29 02:06:42;;;;;;;5.15;3.17;;;;;;;-2.94;100.00;94360.38;2090000;28;20041;-82
2022/01/29 02:07:45;;;;;;;5.30;3.08;;;;;;;-2.92;100.00;94361.63;2092614;28;20025;-81
2022/01/29 02:10:48;;;;;;;;;;;;;;;-2.95;100.00;94361.44;2148900;27;20113;-79
2022/01/29 02:11:52;;;;;;;5.88;3.47;;;;;;;-2.98;100.00;94359.44;2123966;27;19915;-80
2022/01/29 02:13:01;;;;;;;5.75;3.35;;;;;;;-2.87;100.00;94353.66;2112085;27;20028;-79
2022/01/29 02:14:02;;;;;;;5.70;3.13;;;;;;;-2.73;100.00;94352.78;2113009;28;20024;-78
2022/01/29 02:15:05;;;;;;;10.75;3.72;;;;;;;-2.85;100.00;94355.97;2121267;27;20404;-80
2022/01/29 02:16:06;;;;;;;4.90;3.75;;;;;;;-2.85;100.00;94348.13;2121997;27;20023;-79
2022/01/29 02:17:09;;;;;;;8.75;3.40;;;;;;;-2.76;100.00;94346.31;2130024;27;20035;-80
2022/01/29 02:18:14;;;;;;;9.73;4.28;;;;;;;-2.86;100.00;94346.56;2114335;27;20388;-79
2022/01/29 02:19:15;;;;;;;5.65;3.47;;;;;;;-2.75;100.00;94344.47;2128681;27;20031;-79
2022/01/29 02:20:19;;;;;;;7.70;3.33;;;;;;;-2.76;100.00;94346.31;2106108;28;20099;-78
2022/01/29 02:21:21;;;;;;;5.13;3.08;;;;;;;-2.85;100.00;94353.38;2113709;27;20024;-79
2022/01/29 02:22:22;;;;;;;6.13;3.20;;;;;;;-2.90;100.00;94351.63;2120668;27;20028;-79
2022/01/29 02:23:23;;;;;;;5.60;3.53;;;;;;;-2.79;100.00;94350.31;2110532;28;20369;-79
2022/01/29 02:24:24;;;;;;;6.65;3.28;;;;;;;-2.78;100.00;94345.84;2115619;27;20023;-80
2022/01/29 02:25:49;;;;;;;7.90;3.50;;;;;;;-2.83;100.00;94340.75;2119978;27;20023;-79
2022/01/29 02:26:51;;;;;;;7.55;3.50;;;;;;;-2.83;100.00;94338.13;2137303;27;20032;-80
2022/01/29 02:27:52;;;;;;;7.70;3.53;;;;;;;-2.93;100.00;94335.78;2115442;27;20024;-80
2022/01/29 02:28:54;;;;;;;5.57;2.85;;;;;;;-2.92;100.00;94339.94;2104548;28;20024;-80
2022/01/29 02:29:55;;;;;;;4.97;3.17;;;;;;;-2.86;100.00;94330.88;2115809;28;20019;-78
2022/01/29 02:31:02;;;;;;;5.30;3.38;;;;;;;-2.80;100.00;94332.31;2119998;27;20027;-79
2022/01/29 02:32:03;;;;;;;5.47;3.20;;;;;;;-2.75;100.00;94326.16;2130646;27;20030;-79
2022/01/29 02:33:09;;;;;;;7.30;3.38;;;;;;;-2.74;100.00;94325.09;2121556;27;20077;-80
2022/01/29 02:34:10;;;;;;;6.20;3.33;;;;;;;-2.76;100.00;94325.41;2113977;27;20389;-79
2022/01/29 02:35:11;;;;;;;6.80;3.40;;;;;;;-2.78;100.00;94319.69;2120622;28;20126;-79
2022/01/29 02:36:12;;;;;;;6.07;3.08;;;;;;;-2.75;100.00;94318.31;2106159;27;20024;-79
2022/01/29 02:37:13;;;;;;;6.28;2.83;;;;;;;-2.71;100.00;94316.63;2120428;28;20067;-79
2022/01/29 02:38:18;;;;;;;5.38;3.58;;;;;;;-2.73;100.00;94316.91;2105917;27;20028;-79
2022/01/29 02:39:21;;;;;;;6.72;3.20;;;;;;;-2.73;100.00;94314.31;2114065;27;20027;-80
2022/01/29 02:40:22;;;;;;;6.53;3.50;;;;;;;-2.73;100.00;94316.91;2112216;28;20011;-80
2022/01/29 02:41:24;;;;;;;6.80;3.17;;;;;;;-2.74;100.00;94317.22;2104585;28;20020;-79
2022/01/29 02:42:25;;;;;;;4.40;2.92;;;;;;;-2.75;100.00;94311.22;2115408;27;20024;-80
2022/01/29 02:43:32;;;;;;;3.53;3.00;;;;;;;-2.79;100.00;94318.13;2129692;27;20034;-79
2022/01/29 02:44:33;;;;;;;3.75;3.10;;;;;;;-2.72;100.00;94315.06;2117079;27;20500;-79
2022/01/29 02:45:34;;;;;;;4.75;2.88;;;;;;;-2.69;100.00;94310.00;2107726;27;20058;-79
2022/01/29 02:46:49;;;;;;;4.78;2.97;;;;;;;-2.68;100.00;94319.41;2121453;27;20027;-79
2022/01/29 02:47:50;;;;;;;6.32;3.15;;;;;;;-2.60;100.00;94315.28;2129432;27;20436;-80
2022/01/29 02:48:58;;;;;;;5.35;3.03;;;;;;;-2.65;100.00;94318.03;2114622;28;20035;-79
2022/01/29 02:49:59;;;;;;;7.78;3.38;;;;;;;-2.71;100.00;94316.63;2112221;28;20061;-80
2022/01/29 02:51:00;;;;;;;6.32;3.38;;;;;;;-2.65;100.00;94323.28;2127768;27;20026;-79
2022/01/29 02:52:01;;;;;;;6.57;3.38;;;;;;;-2.48;100.00;94318.09;2121974;27;20027;-80
2022/01/29 02:53:02;;;;;;;6.68;3.17;;;;;;;-2.53;100.00;94318.25;2108324;28;20107;-79
2022/01/29 02:54:03;;;;;;;8.05;3.53;;;;;;;-2.54;100.00;94311.47;2111832;27;20031;-79
2022/01/29 02:55:05;;;;;;;6.45;3.10;;;;;;;-2.59;100.00;94314.19;2116901;27;20015;-79
2022/01/29 02:56:07;;;;;;;4.68;3.22;;;;;;;-2.60;100.00;94310.03;2108346;27;20024;-79
2022/01/29 02:57:09;;;;;;;5.50;3.50;;;;;;;-2.62;100.00;94299.13;2102794;28;20028;-79
2022/01/29 02:58:09;;;;;;;5.20;2.90;;;;;;;-2.66;100.00;94298.94;2113144;27;20023;-80
2022/01/29 02:59:11;;;;;;;5.40;3.25;;;;;;;-2.68;100.00;94298.47;2120182;28;20027;-79
2022/01/29 03:00:13;;;;;;;5.10;3.10;;;;;;;-2.66;100.00;94298.94;2116542;28;20024;-79
2022/01/29 03:01:14;;;;;;;5.85;3.15;;;;;;;-2.65;100.00;94297.09;2113715;27;20432;-79
2022/01/29 03:02:15;;;;;;;7.03;3.97;;;;;;;-2.67;100.00;94297.41;2126398;27;20035;-79
2022/01/29 03:03:15;;;;;;;6.13;3.40;;;;;;;-2.68;100.00;94293.22;2128221;27;20023;-80
2022/01/29 03:04:16;;;;;;;7.18;3.35;;;;;;;-2.72;100.00;94288.91;2118120;28;20024;-79
2022/01/29 03:05:17;;;;;;;6.68;3.42;;;;;;;-2.71;100.00;94287.84;2105714;28;20050;-79
2022/01/29 03:06:18;;;;;;;4.72;3.53;;;;;;;-2.71;100.00;94285.25;2109751;28;20103;-79
2022/01/29 03:07:19;;;;;;;5.15;3.38;;;;;;;-2.72;100.00;94297.56;2101534;28;20020;-80
2022/01/29 03:08:20;;;;;;;6.43;3.47;;;;;;;-2.71;100.00;94290.47;2102191;28;20650;-79
2022/01/29 03:09:21;;;;;;;7.43;3.75;;;;;;;-2.69;100.00;94286.47;2116587;27;20126;-80
2022/01/29 03:10:23;;;;;;;6.75;3.33;;;;;;;-2.70;100.00;94278.94;2110093;28;20425;-79
2022/01/29 03:11:24;;;;;;;5.55;3.65;;;;;;;-2.73;100.00;94288.13;2106821;28;20416;-79
2022/01/29 03:12:32;;;;;;;6.75;3.53;;;;;;;-2.77;100.00;94284.59;2110001;28;20031;-78
2022/01/29 03:13:39;;;;;;;5.35;3.20;;;;;;;-2.69;100.00;94285.69;2105053;28;20024;-79
2022/01/29 03:14:44;;;;;;;4.15;3.00;;;;;;;-2.72;100.00;94281.84;2111007;27;20024;-79
2022/01/29 03:15:44;;;;;;;7.07;3.50;;;;;;;-2.74;100.00;94286.59;2115698;28;20027;-79
2022/01/29 03:16:45;;;;;;;7.22;3.40;;;;;;;-2.76;100.00;94286.16;2093137;28;20056;-79
2022/01/29 03:17:59;;;;;;;5.10;3.25;;;;;;;-2.76;100.00;94275.69;2097476;28;20047;-80
2022/01/29 03:18:59;;;;;;;5.05;3.38;;;;;;;-2.70;100.00;94277.06;2113912;27;20516;-79
2022/01/29 03:20:01;;;;;;;4.55;3.10;;;;;;;-2.62;100.00;94270.34;2104954;28;20016;-78
2022/01/29 03:21:02;;;;;;;4.80;3.40;;;;;;;-2.70;100.00;94278.94;2103864;28;20028;-79
2022/01/29 03:22:03;;;;;;;6.82;3.60;;;;;;;-2.73;100.00;94269.81;2091269;28;20091;-79
2022/01/29 03:23:04;;;;;;;5.18;3.65;;;;;;;-2.76;100.00;94273.06;2106713;28;20036;-79
2022/01/29 03:24:06;;;;;;;7.10;3.47;;;;;;;-2.68;100.00;94268.91;2106989;28;20096;-80
2022/01/29 03:25:08;;;;;;;5.38;3.30;;;;;;;-2.56;100.00;94272.50;2106860;28;20468;-79
2022/01/29 03:26:10;;;;;;;4.95;3.25;;;;;;;-2.57;100.00;94270.97;2090782;28;20025;-79
2022/01/29 03:27:11;;;;;;;5.15;3.25;;;;;;;-2.58;100.00;94273.88;2100180;28;20027;-79
2022/01/29 03:28:12;;;;;;;8.02;3.60;;;;;;;-2.71;100.00;94272.94;2123905;27;20049;-80
2022/01/29 03:29:13;;;;;;;7.50;3.60;;;;;;;-2.68;100.00;94272.28;2115325;28;20442;-79
2022/01/29 03:30:14;;;;;;;8.18;3.65;;;;;;;-2.65;100.00;94276.94;2097439;28;20493;-79
2022/01/29 03:31:15;;;;;;;4.75;3.10;;;;;;;-2.63;100.00;94274.81;2098576;28;20047;-79
2022/01/29 03:32:16;;;;;;;5.20;3.20;;;;;;;-2.70;100.00;94281.53;2101083;28;20027;-80
2022/01/29 03:33:17;;;;;;;7.85;3.90;;;;;;;-2.71;100.00;94278.16;2106878;28;20032;-79
2022/01/29 03:34:18;;;;;;;5.43;3.45;;;;;;;-2.69;100.00;94277.84;2101495;28;20492;-80
2022/01/29 03:35:19;;;;;;;5.95;3.50;;;;;;;-2.60;100.00;94276.78;2098728;28;20073;-79
2022/01/29 03:36:20;;;;;;;4.53;3.33;;;;;;;-2.58;100.00;94274.66;2115189;28;20015;-79
2022/01/29 03:37:21;;;;;;;3.83;2.90;;;;;;;-2.44;100.00;94277.16;2104705;28;20024;-79
2022/01/29 03:38:24;;;;;;;4.63;3.03;;;;;;;-2.46;100.00;94268.81;2094349;28;20604;-79
2022/01/29 03:39:27;;;;;;;4.68;3.00;;;;;;;-2.51;100.00;94262.97;2098983;28;20044;-79
2022/01/29 03:40:29;;;;;;;5.60;3.30;;;;;;;-2.41;100.00;94270.53;2098953;28;20019;-80
2022/01/29 03:41:30;;;;;;;6.38;3.53;;;;;;;-2.44;100.00;94271.16;2107162;28;20073;-80
2022/01/29 03:42:36;;;;;;;5.63;3.72;;;;;;;-2.49;100.00;94271.28;2106939;28;20027;-79
2022/01/29 03:43:44;;;;;;;4.25;2.75;;;;;;;-2.38;100.00;94277.78;2100542;28;20077;-79
2022/01/29 03:44:45;;;;;;;5.60;3.65;;;;;;;-2.41;100.00;94275.78;2092099;28;20143;-80
2022/01/29 03:45:46;;;;;;;4.85;3.33;;;;;;;-2.56;100.00;94274.34;2090179;28;20029;-79
2022/01/29 03:46:48;;;;;;;8.25;3.50;;;;;;;-2.58;100.00;94271.28;2090298;28;20025;-80
2022/01/29 03:47:49;;;;;;;5.10;2.88;;;;;;;-2.63;100.00;94277.41;2098977;28;20020;-80
2022/01/29 03:48:50;;;;;;;6.03;3.40;;;;;;;-2.61;100.00;94277.88;2106996;28;20074;-79
2022/01/29 03:49:51;;;;;;;5.50;3.13;;;;;;;-2.59;100.00;94273.13;2098441;28;20721;-80
2022/01/29 03:50:52;;;;;;;6.78;3.38;;;;;;;-2.63;100.00;94276.66;2101480;28;20465;-79
2022/01/29 03:51:53;;;;;;;3.20;2.90;;;;;;;-2.63;100.00;94272.19;2115075;28;20435;-79
2022/01/29 03:52:54;;;;;;;7.20;3.20;;;;;;;-2.66;100.00;94272.00;2115255;28;20027;-79
2022/01/29 03:53:55;;;;;;;8.13;3.28;;;;;;;-2.66;100.00;94270.16;2115260;28;20055;-79
2022/01/29 03:54:56;;;;;;;3.20;2.90;;;;;;;-2.46;100.00;94268.06;2106725;28;20484;-79
2022/01/29 03:55:57;;;;;;;6.63;3.35;;;;;;;-2.53;100.00;94261.44;2091637;28;20150;-79
2022/01/29 03:56:58;;;;;;;6.82;3.60;;;;;;;-2.64;100.00;94260.16;2105358;28;20034;-80
2022/01/29 03:57:59;;;;;;;6.07;3.20;;;;;;;-2.51;100.00;94258.50;2113195;28;20483;-80
2022/01/29 03:59:03;;;;;;;7.15;3.08;;;;;;;-2.65;100.00;94263.09;2099203;28;20032;-78
2022/01/29 04:00:05;;;;;;;6.40;3.15;;;;;;;-2.52;100.00;94267.44;2106747;27;20024;-79
2022/01/29 04:01:06;;;;;;;6.03;3.03;;;;;;;-2.57;100.00;94259.72;2098760;28;20031;-79
2022/01/29 04:02:07;;;;;;;5.95;2.75;;;;;;;-2.39;100.00;94253.44;2090020;28;20074;-79
2022/01/29 04:03:08;;;;;;;4.43;2.88;;;;;;;-2.15;100.00;94253.03;2090389;28;20025;-79
2022/01/29 04:04:09;;;;;;;5.65;2.65;;;;;;;-2.05;100.00;94257.94;2106344;28;20718;-79
2022/01/29 04:05:11;;;;;;;3.45;2.88;;;;;;;-2.19;100.00;94253.94;2107108;28;20032;-79
2022/01/29 04:06:12;;;;;;;4.70;2.80;;;;;;;-2.45;100.00;94248.66;2123651;27;20019;-79
2022/01/29 04:07:13;;;;;;;5.03;2.97;;;;;;;-2.31;100.00;94249.31;2105624;28;20421;-79
2022/01/29 04:08:17;;;;;;;5.00;3.10;;;;;;;-2.32;100.00;94255.63;2091981;28;20029;-78
2022/01/29 04:09:19;;;;;;;5.13;2.90;;;;;;;-2.14;100.00;94253.78;2113382;28;20033;-78
2022/01/29 04:10:22;;;;;;;6.93;2.95;;;;;;;-2.26;100.00;94243.91;2108207;28;20048;-78
2022/01/29 04:11:24;;;;;;;4.72;3.50;;;;;;;-2.43;100.00;94247.28;2113075;28;20130;-80
2022/01/29 04:12:27;;;;;;;4.80;2.70;;;;;;;-2.13;100.00;94247.47;2100573;28;20111;-79
2022/01/29 04:13:28;;;;;;;6.32;3.20;;;;;;;-2.19;100.00;94243.47;2104486;28;20307;-79
2022/01/29 04:14:36;;;;;;;7.55;2.85;;;;;;;-2.44;100.00;94242.34;2101433;28;20048;-79
2022/01/29 04:15:38;;;;;;;6.10;2.90;;;;;;;-2.56;100.00;94241.09;2104455;28;20087;-80
2022/01/29 04:16:39;;;;;;;5.82;3.28;;;;;;;-2.48;100.00;94230.94;2098135;28;20024;-79
2022/01/29 04:17:40;;;;;;;4.57;2.70;;;;;;;-2.59;100.00;94220.78;2098145;28;20024;-79
2022/01/29 04:18:41;;;;;;;3.58;2.70;;;;;;;-2.52;100.00;94222.94;2106463;28;20024;-79
2022/01/29 04:19:44;;;;;;;4.55;3.10;;;;;;;-2.61;100.00;94220.31;2106726;28;20024;-80
2022/01/29 04:20:45;;;;;;;5.95;3.13;;;;;;;-2.56;100.00;94222.78;2112104;28;20027;-79
2022/01/29 04:21:46;;;;;;;5.00;2.78;;;;;;;-2.33;100.00;94223.44;2111412;28;20048;-79
2022/01/29 04:22:47;;;;;;;4.20;3.22;;;;;;;-2.38;100.00;94220.19;2115264;28;20102;-78
2022/01/29 04:23:48;;;;;;;4.78;2.63;;;;;;;-2.40;100.00;94217.88;2106492;28;20043;-80
2022/01/29 04:24:49;;;;;;;6.05;3.20;;;;;;;-2.53;100.00;94221.41;2092396;28;20505;-79
2022/01/29 04:25:52;;;;;;;4.95;3.08;;;;;;;-2.57;100.00;94220.47;2093050;28;20020;-80
2022/01/29 04:26:53;;;;;;;4.82;2.97;;;;;;;-2.48;100.00;94215.25;2098651;28;20060;-79
2022/01/29 04:27:54;;;;;;;4.25;2.65;;;;;;;-2.65;100.00;94223.84;2098979;28;20469;-79
2022/01/29 04:28:55;;;;;;;4.95;3.03;;;;;;;-2.62;100.00;94224.00;2102886;28;20508;-79
2022/01/29 04:29:59;;;;;;;4.25;2.63;;;;;;;-2.63;100.00;94216.47;2099521;28;20429;-79
2022/01/29 04:31:06;;;;;;;3.15;2.70;;;;;;;-2.61;100.00;94215.06;2113245;27;20023;-79
2022/01/29 04:32:14;;;;;;;4.00;2.60;;;;;;;-2.57;100.00;94215.22;2107319;28;20028;-79
2022/01/29 04:34:20;;;;;;;5.75;2.67;;;;;;;-2.45;100.00;94210.16;2109619;27;20020;-79
2022/01/29 04:35:21;;;;;;;4.85;2.97;;;;;;;-2.53;100.00;94214.31;2110524;28;20465;-78
2022/01/29 04:36:22;;;;;;;3.45;2.88;;;;;;;-2.58;100.00;94214.47;2102810;28;20020;-79
2022/01/29 04:37:22;;;;;;;6.47;2.90;;;;;;;-2.61;100.00;94212.44;2113345;28;20051;-79
2022/01/29 04:38:24;;;;;;;5.75;2.97;;;;;;;-2.58;100.00;94211.84;2102478;28;20039;-79
2022/01/29 04:39:25;;;;;;;4.57;2.72;;;;;;;-2.57;100.00;94210.00;2106375;28;20070;-79
2022/01/29 04:40:28;;;;;;;5.13;2.92;;;;;;;-2.62;100.00;94203.06;2098103;28;20017;-79
2022/01/29 04:41:29;;;;;;;4.50;2.85;;;;;;;-2.58;100.00;94211.09;2098342;28;20968;-78
2022/01/29 04:42:30;;;;;;;5.30;3.00;;;;;;;-2.63;100.00;94208.63;2098242;28;20032;-79
2022/01/29 04:43:33;;;;;;;3.50;3.10;;;;;;;-2.64;100.00;94207.06;2098956;28;20016;-79
2022/01/29 04:44:33;;;;;;;8.15;3.38;;;;;;;-2.68;100.00;94206.88;2098285;28;20089;-79
2022/01/29 04:45:35;;;;;;;5.45;3.08;;;;;;;-2.60;100.00;94205.38;2098014;28;20458;-79
2022/01/29 04:46:36;;;;;;;5.65;3.03;;;;;;;-2.65;100.00;94205.50;2088959;28;20043;-79
2022/01/29 04:47:36;;;;;;;4.35;2.72;;;;;;;-2.66;100.00;94209.22;2106312;28;20079;-79
2022/01/29 04:48:37;;;;;;;4.78;3.20;;;;;;;-2.70;100.00;94208.28;2100354;28;20081;-78
2022/01/29 04:49:38;;;;;;;3.83;2.53;;;;;;;-2.73;100.00;94203.66;2110383;28;20490;-79
2022/01/29 04:50:39;;;;;;;5.63;2.97;;;;;;;-2.74;100.00;94209.97;2110087;28;20012;-79
2022/01/29 04:51:40;;;;;;;5.15;3.05;;;;;;;-2.73;100.00;94219.34;2106148;28;20487;-77